Time;durP1;ratioP1;P1;durP2;ratioP2;P2;SDS_P1;SDS_P2;PMS_P1;PMS_P2;Temp;Humidity;BMP_temperature;BMP_pressure;BME280_temperature;BME280_humidity;BME280_pressure;Samples;Min_cycle;Max_cycle;Signal;HPM_P1;HPM_P2
2022/03/03 00:00:43;;;;;;;62.22;30.58;;;3.60;99.90;;;;;;5110727;28;20028;-67
2022/03/03 00:03:09;;;;;;;55.72;26.60;;;3.60;99.90;;;;;;5109912;28;20036;-67
2022/03/03 00:05:34;;;;;;;62.67;28.20;;;3.50;99.90;;;;;;5088458;28;20032;-67
2022/03/03 00:08:00;;;;;;;58.72;28.00;;;3.50;99.90;;;;;;5068610;28;20047;-67
2022/03/03 00:10:25;;;;;;;60.45;29.15;;;3.50;99.90;;;;;;5070177;28;20044;-67
2022/03/03 00:12:51;;;;;;;63.80;29.00;;;3.50;99.90;;;;;;5069610;28;20048;-67
2022/03/03 00:15:17;;;;;;;57.03;27.95;;;3.40;99.90;;;;;;5070304;28;20146;-67
2022/03/03 00:17:42;;;;;;;59.33;28.38;;;3.40;99.90;;;;;;5070003;28;20044;-67
2022/03/03 00:20:08;;;;;;;58.97;29.10;;;3.40;99.90;;;;;;5070117;28;20150;-67
2022/03/03 00:22:34;;;;;;;63.40;27.15;;;3.40;99.90;;;;;;5069128;28;20040;-67
2022/03/03 00:24:59;;;;;;;60.47;28.92;;;3.30;99.90;;;;;;5069917;28;20036;-66
2022/03/03 00:27:25;;;;;;;62.42;27.45;;;3.40;99.90;;;;;;5070247;28;20079;-66
2022/03/03 00:29:51;;;;;;;59.53;27.42;;;3.30;99.90;;;;;;5069856;28;20052;-67
2022/03/03 00:32:17;;;;;;;54.78;26.83;;;3.30;99.90;;;;;;5069026;28;20545;-67
2022/03/03 00:34:43;;;;;;;60.15;27.27;;;3.30;99.90;;;;;;5069874;28;20076;-67
2022/03/03 00:37:08;;;;;;;59.30;27.60;;;3.30;99.90;;;;;;5069753;28;20048;-67
2022/03/03 00:39:34;;;;;;;58.65;27.25;;;3.20;99.90;;;;;;5070083;28;20036;-67
2022/03/03 00:41:59;;;;;;;51.80;27.17;;;3.30;99.90;;;;;;5069582;28;20040;-66
2022/03/03 00:44:25;;;;;;;50.40;26.05;;;3.20;99.90;;;;;;5070267;28;20465;-65
2022/03/03 00:46:50;;;;;;;53.97;26.45;;;3.20;99.90;;;;;;5069744;28;20045;-66
2022/03/03 00:49:16;;;;;;;51.80;26.13;;;3.20;99.90;;;;;;5069694;28;20508;-66
2022/03/03 00:51:41;;;;;;;51.33;26.85;;;3.20;99.90;;;;;;5071365;28;20459;-66
2022/03/03 00:54:07;;;;;;;49.95;25.70;;;3.10;99.90;;;;;;5071017;28;20047;-66
2022/03/03 00:56:33;;;;;;;53.78;27.60;;;3.20;99.90;;;;;;5069378;28;20032;-66
2022/03/03 00:58:59;;;;;;;50.65;26.33;;;3.10;99.90;;;;;;5069370;28;20071;-66
2022/03/03 01:01:25;;;;;;;52.85;25.67;;;3.10;99.90;;;;;;5069338;28;20119;-66
2022/03/03 01:03:50;;;;;;;50.22;25.85;;;3.10;99.90;;;;;;5068670;28;20076;-66
2022/03/03 01:06:16;;;;;;;50.00;25.70;;;3.00;99.90;;;;;;5069108;28;20751;-66
2022/03/03 01:08:41;;;;;;;52.15;26.45;;;3.00;99.90;;;;;;5069409;28;20476;-66
2022/03/03 01:11:07;;;;;;;58.60;27.38;;;3.00;99.90;;;;;;5069457;28;20048;-66
2022/03/03 01:13:34;;;;;;;49.60;26.73;;;2.90;99.90;;;;;;5067225;28;20136;-66
2022/03/03 01:15:59;;;;;;;51.05;24.83;;;2.90;99.90;;;;;;5068112;28;20048;-66
2022/03/03 01:18:25;;;;;;;53.88;25.42;;;2.90;99.90;;;;;;5069400;28;20044;-66
2022/03/03 01:20:54;;;;;;;53.90;25.05;;;2.90;99.90;;;;;;5069229;28;20032;-67
2022/03/03 01:23:19;;;;;;;49.35;25.42;;;2.90;99.90;;;;;;5067006;28;20113;-67
2022/03/03 01:25:45;;;;;;;50.10;23.52;;;2.90;99.90;;;;;;5069308;28;20606;-66
2022/03/03 01:28:10;;;;;;;47.33;23.80;;;2.90;99.90;;;;;;5068126;28;20395;-67
2022/03/03 01:30:36;;;;;;;50.53;24.17;;;2.90;99.90;;;;;;5069222;28;20041;-66
2022/03/03 01:33:01;;;;;;;50.83;24.38;;;2.80;99.90;;;;;;5068263;28;20040;-66
2022/03/03 01:35:27;;;;;;;53.53;24.75;;;2.70;99.90;;;;;;5069285;28;20040;-66
2022/03/03 01:37:53;;;;;;;48.70;24.45;;;2.60;99.90;;;;;;5069098;28;20453;-66
2022/03/03 01:40:22;;;;;;;47.00;23.70;;;2.70;99.90;;;;;;5070037;28;20036;-66
2022/03/03 01:42:49;;;;;;;50.75;25.08;;;2.70;99.90;;;;;;5071969;28;20047;-66
2022/03/03 01:45:14;;;;;;;49.67;24.52;;;2.60;99.90;;;;;;5072464;28;20110;-66
2022/03/03 01:47:40;;;;;;;52.00;25.08;;;2.50;99.90;;;;;;5072535;28;20071;-66
2022/03/03 01:50:06;;;;;;;49.05;24.95;;;2.50;99.90;;;;;;5072279;28;20049;-67
2022/03/03 01:52:32;;;;;;;49.13;22.20;;;2.50;99.90;;;;;;5071641;28;20098;-67
2022/03/03 01:54:58;;;;;;;50.38;24.50;;;2.40;99.90;;;;;;5072366;28;20048;-67
2022/03/03 01:57:24;;;;;;;55.00;25.70;;;2.20;99.90;;;;;;5072311;28;20048;-66
2022/03/03 01:59:50;;;;;;;46.83;24.00;;;2.20;99.90;;;;;;5072681;28;20044;-66
2022/03/03 02:02:15;;;;;;;49.15;24.98;;;2.20;99.90;;;;;;5072074;28;20132;-66
2022/03/03 02:04:41;;;;;;;54.38;25.10;;;2.20;99.90;;;;;;5074115;28;20044;-66
2022/03/03 02:07:07;;;;;;;50.22;26.65;;;2.20;99.90;;;;;;5073910;28;20033;-66
2022/03/03 02:09:37;;;;;;;49.25;24.02;;;2.30;99.90;;;;;;5072433;28;20032;-66
2022/03/03 02:12:04;;;;;;;48.13;24.10;;;2.30;99.90;;;;;;5071391;28;20044;-66
2022/03/03 02:14:38;;;;;;;54.65;25.10;;;2.20;99.90;;;;;;5071972;28;20584;-66
2022/03/03 02:17:05;;;;;;;51.88;25.30;;;2.20;99.90;;;;;;5071810;28;20182;-66
2022/03/03 02:19:30;;;;;;;47.45;24.10;;;2.30;99.90;;;;;;5072168;28;20556;-66
2022/03/03 02:21:56;;;;;;;47.17;22.73;;;2.20;99.90;;;;;;5071236;28;20111;-66
2022/03/03 02:24:21;;;;;;;47.33;24.85;;;2.10;99.90;;;;;;5071987;28;20036;-66
2022/03/03 02:26:47;;;;;;;44.60;23.35;;;2.20;99.90;;;;;;5071760;28;20044;-66
2022/03/03 02:29:13;;;;;;;48.85;23.48;;;2.30;99.90;;;;;;5071795;28;20148;-66
2022/03/03 02:31:39;;;;;;;46.22;24.10;;;2.20;99.90;;;;;;5071194;28;20469;-66
2022/03/03 02:34:05;;;;;;;43.10;23.17;;;2.20;99.90;;;;;;5071504;28;20040;-66
2022/03/03 02:36:30;;;;;;;44.33;22.80;;;2.20;99.90;;;;;;5071610;28;20044;-66
2022/03/03 02:38:58;;;;;;;49.00;24.17;;;2.10;99.90;;;;;;5071738;28;20036;-66
2022/03/03 02:41:25;;;;;;;44.90;24.10;;;2.10;99.90;;;;;;5071493;28;20040;-66
2022/03/03 02:43:51;;;;;;;49.90;24.33;;;2.00;99.90;;;;;;5070782;28;20051;-66
2022/03/03 02:46:17;;;;;;;45.45;23.17;;;2.00;99.90;;;;;;5071164;28;20505;-66
2022/03/03 02:48:43;;;;;;;44.33;23.23;;;2.00;99.90;;;;;;5071427;28;20048;-66
2022/03/03 02:51:09;;;;;;;44.42;22.88;;;2.00;99.90;;;;;;5069381;28;20044;-66
2022/03/03 02:53:35;;;;;;;45.63;23.05;;;2.00;99.90;;;;;;5069989;28;20041;-67
2022/03/03 02:56:02;;;;;;;44.75;22.60;;;2.10;99.90;;;;;;5071613;28;20123;-67
2022/03/03 02:58:28;;;;;;;44.22;23.55;;;2.00;99.90;;;;;;5070567;28;20561;-66
2022/03/03 03:00:54;;;;;;;49.28;24.05;;;1.80;99.90;;;;;;5071535;28;20044;-67
2022/03/03 03:03:19;;;;;;;44.78;22.80;;;1.80;99.90;;;;;;5070433;28;20677;-67
2022/03/03 03:05:46;;;;;;;43.63;23.00;;;1.80;99.90;;;;;;5070891;28;20103;-67
2022/03/03 03:08:11;;;;;;;44.38;22.38;;;1.90;99.90;;;;;;5071153;28;20051;-67
2022/03/03 03:10:38;;;;;;;45.08;23.05;;;2.00;99.90;;;;;;5070981;28;20041;-67
2022/03/03 03:13:05;;;;;;;39.05;22.45;;;1.90;99.90;;;;;;5070438;28;20048;-67
2022/03/03 03:15:31;;;;;;;42.40;21.75;;;1.80;99.90;;;;;;5072535;28;20045;-67
2022/03/03 03:18:14;;;;;;;48.35;23.17;;;1.90;99.90;;;;;;5072541;28;20051;-67
2022/03/03 03:20:42;;;;;;;42.10;23.27;;;1.90;99.90;;;;;;5071427;28;20574;-67
2022/03/03 03:23:09;;;;;;;42.38;22.13;;;1.90;99.90;;;;;;5070321;28;20102;-67
2022/03/03 03:25:37;;;;;;;41.72;21.48;;;1.80;99.90;;;;;;5070618;28;20036;-66
2022/03/03 03:28:05;;;;;;;48.53;22.45;;;1.70;99.90;;;;;;5070586;28;20059;-67
2022/03/03 03:30:30;;;;;;;47.08;23.85;;;1.60;99.90;;;;;;5070779;28;20075;-67
2022/03/03 03:32:56;;;;;;;40.53;22.70;;;1.70;99.90;;;;;;5069640;28;20505;-67
2022/03/03 03:35:22;;;;;;;45.22;23.02;;;1.80;99.90;;;;;;5070590;28;20032;-67
2022/03/03 03:37:48;;;;;;;43.20;22.63;;;1.80;99.90;;;;;;5070463;28;20074;-67
2022/03/03 03:40:14;;;;;;;40.92;20.80;;;1.70;99.90;;;;;;5070254;28;20090;-66
2022/03/03 03:42:40;;;;;;;42.20;21.98;;;1.60;99.90;;;;;;5069727;28;20035;-67
2022/03/03 03:45:05;;;;;;;47.88;23.63;;;1.50;99.90;;;;;;5070327;28;20117;-67
2022/03/03 03:47:31;;;;;;;43.70;22.08;;;1.50;99.90;;;;;;5070071;28;20049;-67
2022/03/03 03:49:58;;;;;;;47.05;23.08;;;1.50;99.90;;;;;;5070250;28;20111;-67
2022/03/03 03:52:23;;;;;;;45.97;22.33;;;1.40;99.90;;;;;;5069408;28;20120;-67
2022/03/03 03:54:49;;;;;;;43.67;22.95;;;1.50;99.90;;;;;;5068633;28;20186;-66
2022/03/03 03:57:14;;;;;;;43.08;23.05;;;1.50;99.90;;;;;;5070160;28;20201;-67
2022/03/03 03:59:40;;;;;;;46.65;24.00;;;1.40;99.90;;;;;;5070382;28;20358;-67
2022/03/03 04:02:06;;;;;;;43.35;22.15;;;1.50;99.90;;;;;;5069373;28;20166;-67
2022/03/03 04:04:31;;;;;;;47.78;24.13;;;1.50;99.90;;;;;;5069725;28;20043;-67
2022/03/03 04:06:57;;;;;;;47.53;23.10;;;1.50;99.90;;;;;;5069991;28;20044;-67
2022/03/03 04:09:22;;;;;;;43.50;22.90;;;1.60;99.90;;;;;;5068622;28;20051;-67
2022/03/03 04:11:48;;;;;;;44.33;24.60;;;1.70;99.90;;;;;;5069127;28;20051;-67
2022/03/03 04:14:13;;;;;;;45.88;23.77;;;1.70;99.90;;;;;;5070164;28;20044;-66
2022/03/03 04:16:39;;;;;;;45.45;24.67;;;1.80;99.90;;;;;;5070012;28;20043;-66
2022/03/03 04:19:05;;;;;;;84.38;27.00;;;1.80;99.90;;;;;;5070022;28;20444;-67
2022/03/03 04:21:31;;;;;;;41.40;21.80;;;1.80;99.90;;;;;;5070167;28;20207;-67
2022/03/03 04:23:57;;;;;;;47.58;23.50;;;1.80;99.90;;;;;;5069569;28;20111;-67
2022/03/03 04:26:22;;;;;;;44.85;22.13;;;1.70;99.90;;;;;;5070725;28;20116;-66
2022/03/03 04:28:48;;;;;;;42.53;22.52;;;1.70;99.90;;;;;;5071393;28;20073;-67
2022/03/03 04:31:14;;;;;;;46.22;23.58;;;1.60;99.90;;;;;;5070408;28;20072;-66
2022/03/03 04:33:39;;;;;;;40.58;21.08;;;1.60;99.90;;;;;;5067286;28;20047;-67
2022/03/03 04:36:06;;;;;;;42.63;22.13;;;1.70;99.90;;;;;;5069805;28;20401;-67
2022/03/03 04:38:31;;;;;;;42.88;22.30;;;1.70;99.90;;;;;;5069999;28;20038;-67
2022/03/03 04:40:57;;;;;;;39.88;21.30;;;1.70;99.90;;;;;;5070220;28;20543;-66
2022/03/03 04:43:22;;;;;;;40.38;21.13;;;1.70;99.90;;;;;;5069145;28;20037;-67
2022/03/03 04:45:48;;;;;;;39.72;21.33;;;1.70;99.90;;;;;;5069681;28;20048;-67
2022/03/03 04:48:14;;;;;;;38.05;20.35;;;1.70;99.90;;;;;;5069594;28;20093;-66
2022/03/03 04:50:39;;;;;;;44.00;22.30;;;1.70;99.90;;;;;;5069570;28;20162;-67
2022/03/03 04:53:05;;;;;;;41.88;21.85;;;1.70;99.90;;;;;;5068695;28;20072;-66
2022/03/03 04:55:30;;;;;;;41.67;21.42;;;1.70;99.90;;;;;;5068098;28;20043;-66
2022/03/03 04:57:56;;;;;;;39.47;20.55;;;1.70;99.90;;;;;;5069682;28;20097;-66
2022/03/03 05:00:21;;;;;;;38.78;20.50;;;1.80;99.90;;;;;;5069784;28;20123;-66
2022/03/03 05:02:47;;;;;;;42.70;21.98;;;1.70;99.90;;;;;;5067410;28;20048;-67
2022/03/03 05:05:13;;;;;;;42.03;21.48;;;1.80;99.90;;;;;;5069225;28;20055;-67
2022/03/03 05:07:38;;;;;;;38.35;20.92;;;1.70;99.90;;;;;;5069306;28;20056;-67
2022/03/03 05:10:05;;;;;;;38.30;21.13;;;1.80;99.90;;;;;;5069369;28;20040;-67
2022/03/03 05:12:30;;;;;;;37.53;21.50;;;1.80;99.90;;;;;;5068738;28;20128;-67
2022/03/03 05:14:56;;;;;;;37.05;20.45;;;1.80;99.90;;;;;;5069750;28;20507;-67
2022/03/03 05:17:22;;;;;;;40.22;20.88;;;1.70;99.90;;;;;;5073144;28;20083;-67
2022/03/03 05:19:48;;;;;;;38.03;21.52;;;1.70;99.90;;;;;;5073099;28;20117;-67
2022/03/03 05:22:14;;;;;;;39.17;20.63;;;1.70;99.90;;;;;;5072257;28;20037;-67
2022/03/03 05:24:40;;;;;;;36.90;20.27;;;1.60;99.90;;;;;;5073175;28;20130;-67
2022/03/03 05:27:05;;;;;;;35.50;19.90;;;1.70;99.90;;;;;;5073146;28;20036;-67
2022/03/03 05:29:31;;;;;;;36.85;19.38;;;1.60;99.90;;;;;;5072640;28;20033;-67
2022/03/03 05:32:00;;;;;;;36.70;19.13;;;1.60;99.90;;;;;;5071810;28;20128;-67
2022/03/03 05:34:26;;;;;;;37.65;20.20;;;1.70;99.90;;;;;;5072761;28;20037;-67
2022/03/03 05:36:52;;;;;;;34.88;18.65;;;1.70;99.90;;;;;;5072638;28;20415;-67
2022/03/03 05:39:18;;;;;;;37.20;19.42;;;1.70;99.90;;;;;;5073054;28;20052;-67
2022/03/03 05:41:44;;;;;;;37.97;19.88;;;1.70;99.90;;;;;;5073770;28;20028;-67
2022/03/03 05:44:13;;;;;;;38.35;20.73;;;1.70;99.90;;;;;;5073030;28;20053;-67
2022/03/03 05:46:42;;;;;;;36.28;18.65;;;1.70;99.90;;;;;;5072659;28;20068;-67
2022/03/03 05:49:08;;;;;;;35.90;18.77;;;1.70;99.90;;;;;;5072426;28;20075;-67
2022/03/03 05:51:34;;;;;;;34.22;20.02;;;1.70;99.90;;;;;;5072046;28;20044;-67
2022/03/03 05:54:00;;;;;;;33.20;19.45;;;1.70;99.90;;;;;;5071895;28;20085;-67
2022/03/03 05:56:31;;;;;;;35.65;19.67;;;1.70;99.90;;;;;;5072436;28;20119;-66
2022/03/03 05:59:01;;;;;;;40.22;20.58;;;1.60;99.90;;;;;;5072427;28;20043;-66
2022/03/03 06:01:27;;;;;;;34.30;18.77;;;1.40;99.90;;;;;;5072118;28;20040;-67
2022/03/03 06:03:58;;;;;;;34.63;19.52;;;1.50;99.90;;;;;;5071116;28;20028;-67
2022/03/03 06:06:28;;;;;;;35.28;19.13;;;1.50;99.90;;;;;;5064942;28;20045;-67
2022/03/03 06:09:15;;;;;;;35.53;18.42;;;1.50;99.90;;;;;;5061790;28;20211;-67
2022/03/03 06:12:02;;;;;;;34.58;19.15;;;1.40;99.90;;;;;;5065441;28;20040;-67
2022/03/03 06:14:38;;;;;;;37.22;19.23;;;1.40;99.90;;;;;;5072041;28;20109;-67
2022/03/03 06:17:04;;;;;;;39.17;19.95;;;1.50;99.90;;;;;;5068362;28;20044;-67
2022/03/03 06:19:33;;;;;;;36.50;18.60;;;1.40;99.90;;;;;;5070235;28;20032;-67
2022/03/03 06:21:58;;;;;;;36.35;18.95;;;1.30;99.90;;;;;;5071101;28;20398;-67
2022/03/03 06:24:24;;;;;;;34.75;19.40;;;1.30;99.90;;;;;;5071762;28;20037;-67
2022/03/03 06:26:50;;;;;;;36.20;19.75;;;1.30;99.90;;;;;;5071522;28;20044;-67
2022/03/03 06:29:16;;;;;;;36.03;19.30;;;1.40;99.90;;;;;;5071984;28;20040;-67
2022/03/03 06:31:41;;;;;;;33.05;18.98;;;1.40;99.90;;;;;;5071287;28;20043;-67
2022/03/03 06:34:07;;;;;;;32.97;18.20;;;1.40;99.90;;;;;;5071493;28;20040;-67
2022/03/03 06:36:33;;;;;;;37.05;20.67;;;1.40;99.90;;;;;;5071514;28;20699;-67
2022/03/03 06:38:59;;;;;;;35.75;19.55;;;1.40;99.90;;;;;;5071645;28;20047;-67
2022/03/03 06:41:25;;;;;;;36.25;19.27;;;1.40;99.90;;;;;;5071454;28;20040;-67
2022/03/03 06:43:52;;;;;;;36.40;18.88;;;1.50;99.90;;;;;;5070908;28;20401;-67
2022/03/03 06:46:18;;;;;;;34.80;18.35;;;1.40;99.90;;;;;;5071660;28;20440;-68
2022/03/03 06:48:45;;;;;;;38.40;18.90;;;1.50;99.90;;;;;;5071871;28;20053;-67
2022/03/03 06:51:15;;;;;;;38.65;18.98;;;1.50;99.90;;;;;;5072399;28;20157;-67
2022/03/03 06:53:46;;;;;;;33.00;18.58;;;1.50;99.90;;;;;;5071536;28;20535;-67
2022/03/03 06:56:13;;;;;;;35.03;19.42;;;1.50;99.90;;;;;;5071275;28;20036;-67
2022/03/03 06:58:39;;;;;;;31.45;18.40;;;1.50;99.90;;;;;;5071534;28;20044;-67
2022/03/03 07:01:07;;;;;;;36.25;19.10;;;1.50;99.90;;;;;;5071402;28;20106;-68
2022/03/03 07:03:33;;;;;;;38.20;20.63;;;1.60;99.90;;;;;;5070627;28;20120;-67
2022/03/03 07:06:01;;;;;;;35.90;19.15;;;1.70;99.90;;;;;;5071673;28;20113;-68
2022/03/03 07:08:26;;;;;;;38.60;19.90;;;1.70;99.90;;;;;;5071249;28;20033;-67
2022/03/03 07:10:52;;;;;;;39.13;19.73;;;1.70;99.90;;;;;;5070907;28;20048;-67
2022/03/03 07:13:18;;;;;;;37.40;19.25;;;1.80;99.90;;;;;;5070596;28;20044;-67
2022/03/03 07:16:00;;;;;;;39.67;19.90;;;1.90;99.90;;;;;;5071142;28;20446;-67
2022/03/03 07:18:37;;;;;;;35.13;18.63;;;1.90;99.90;;;;;;5070976;28;20048;-67
2022/03/03 07:21:10;;;;;;;37.00;19.58;;;2.00;99.90;;;;;;5070978;28;20063;-67
2022/03/03 07:23:38;;;;;;;36.60;18.55;;;2.00;99.90;;;;;;5070444;28;20040;-67
2022/03/03 07:26:10;;;;;;;31.35;17.50;;;2.00;99.90;;;;;;5070781;28;20404;-67
2022/03/03 07:28:40;;;;;;;33.85;18.50;;;2.10;99.90;;;;;;5070893;28;20393;-67
2022/03/03 07:31:07;;;;;;;35.25;19.73;;;2.10;99.90;;;;;;5070803;28;20044;-67
2022/03/03 07:33:39;;;;;;;37.03;18.63;;;2.20;99.90;;;;;;5068639;28;20119;-67
2022/03/03 07:36:08;;;;;;;36.35;19.73;;;2.30;99.90;;;;;;5070765;28;20044;-67
2022/03/03 07:38:38;;;;;;;35.83;19.67;;;2.40;99.90;;;;;;5069973;28;20099;-67
2022/03/03 07:41:05;;;;;;;37.25;18.25;;;2.40;99.90;;;;;;5077466;28;20032;-67
2022/03/03 07:43:31;;;;;;;35.78;17.30;;;2.40;99.90;;;;;;5084620;28;20079;-65
2022/03/03 07:45:57;;;;;;;33.28;18.13;;;2.40;99.90;;;;;;5070283;28;20072;-66
2022/03/03 07:48:24;;;;;;;36.90;18.90;;;2.50;99.90;;;;;;5097858;28;20129;-66
2022/03/03 07:50:50;;;;;;;30.30;17.73;;;2.50;99.90;;;;;;5069816;28;20047;-66
2022/03/03 07:53:16;;;;;;;30.80;17.77;;;2.60;99.90;;;;;;5068827;28;20036;-66
2022/03/03 07:55:48;;;;;;;33.80;18.67;;;2.70;99.90;;;;;;5069446;28;20102;-66
2022/03/03 07:58:16;;;;;;;36.38;18.85;;;2.80;99.90;;;;;;5070186;28;20052;-67
2022/03/03 08:00:47;;;;;;;34.45;18.50;;;2.80;99.90;;;;;;5070446;28;20037;-68
2022/03/03 08:03:16;;;;;;;36.08;18.95;;;2.80;99.90;;;;;;5069816;28;20083;-67
2022/03/03 08:05:45;;;;;;;35.88;18.10;;;2.90;99.90;;;;;;5070586;28;20041;-66
2022/03/03 08:08:16;;;;;;;32.70;16.73;;;2.90;99.90;;;;;;5069336;28;20040;-66
2022/03/03 08:10:45;;;;;;;26.73;16.70;;;2.90;99.90;;;;;;5069311;28;20147;-66
2022/03/03 08:13:14;;;;;;;32.78;16.58;;;3.00;99.90;;;;;;5068048;28;20040;-66
2022/03/03 08:15:41;;;;;;;29.52;18.38;;;3.00;99.90;;;;;;5070224;28;20086;-66
2022/03/03 08:18:08;;;;;;;29.88;16.95;;;3.10;99.90;;;;;;5070064;28;20442;-66
2022/03/03 08:20:35;;;;;;;30.48;18.20;;;3.20;99.90;;;;;;5069289;28;20162;-66
2022/03/03 08:23:01;;;;;;;32.22;17.52;;;3.30;99.90;;;;;;5069580;28;20531;-66
2022/03/03 08:25:28;;;;;;;34.08;18.17;;;3.30;99.90;;;;;;5070277;28;20043;-66
2022/03/03 08:27:54;;;;;;;34.67;18.08;;;3.30;99.90;;;;;;5070147;28;20169;-67
2022/03/03 08:30:21;;;;;;;34.90;19.20;;;3.40;99.90;;;;;;5070155;28;20082;-66
2022/03/03 08:33:05;;;;;;;33.25;18.35;;;3.50;99.90;;;;;;5068772;28;20085;-66
2022/03/03 08:35:36;;;;;;;29.83;17.38;;;3.50;99.90;;;;;;5071079;28;20101;-67
2022/03/03 08:38:21;;;;;;;28.48;17.27;;;3.50;99.90;;;;;;5073293;28;20530;-67
2022/03/03 08:40:49;;;;;;;28.40;17.00;;;3.70;99.90;;;;;;5069870;28;20044;-67
2022/03/03 08:43:20;;;;;;;30.33;18.33;;;3.60;99.90;;;;;;5068960;28;20081;-67
2022/03/03 08:45:48;;;;;;;30.13;17.63;;;3.70;99.90;;;;;;5069748;28;20041;-66
2022/03/03 08:48:15;;;;;;;32.75;18.88;;;3.80;99.90;;;;;;5069872;28;20119;-67
2022/03/03 08:50:42;;;;;;;31.92;19.27;;;3.80;99.90;;;;;;5073085;28;20079;-66
2022/03/03 08:53:09;;;;;;;32.13;17.95;;;3.80;99.90;;;;;;5073013;28;20067;-66
2022/03/03 08:55:37;;;;;;;32.47;18.38;;;3.90;99.90;;;;;;5073633;28;20040;-66
2022/03/03 08:58:04;;;;;;;34.70;17.40;;;4.00;99.90;;;;;;5073656;28;20139;-66
2022/03/03 09:00:30;;;;;;;32.28;18.33;;;4.10;99.90;;;;;;5073835;28;20087;-66
2022/03/03 09:02:57;;;;;;;31.02;17.55;;;4.20;99.90;;;;;;5072799;28;20040;-67
2022/03/03 09:05:23;;;;;;;31.67;18.63;;;4.20;99.90;;;;;;5073499;28;20043;-66
2022/03/03 09:07:49;;;;;;;31.67;18.20;;;4.30;99.90;;;;;;5073365;28;20045;-67
2022/03/03 09:10:14;;;;;;;31.45;18.20;;;4.30;99.90;;;;;;5071448;28;20059;-66
2022/03/03 09:12:41;;;;;;;33.08;17.13;;;4.40;99.90;;;;;;5072397;28;20439;-67
2022/03/03 09:15:08;;;;;;;36.95;18.25;;;4.50;99.90;;;;;;5073049;28;20033;-67
2022/03/03 09:17:34;;;;;;;32.42;17.13;;;4.60;99.90;;;;;;5073063;28;20041;-66
2022/03/03 09:20:01;;;;;;;30.58;18.75;;;4.70;99.90;;;;;;5074213;28;20409;-67
2022/03/03 09:22:27;;;;;;;30.92;17.20;;;4.80;99.90;;;;;;5072763;28;20064;-66
2022/03/03 09:24:54;;;;;;;32.75;17.38;;;4.80;99.90;;;;;;5073013;28;20067;-66
2022/03/03 09:27:20;;;;;;;29.10;18.38;;;4.90;99.90;;;;;;5072895;28;20120;-66
2022/03/03 09:29:45;;;;;;;30.20;16.40;;;4.90;99.90;;;;;;5091697;28;20542;-66
2022/03/03 09:32:13;;;;;;;32.95;17.92;;;5.10;99.90;;;;;;5091611;28;20492;-66
2022/03/03 09:34:39;;;;;;;30.73;17.85;;;5.10;99.90;;;;;;5090799;28;20044;-66
2022/03/03 09:37:04;;;;;;;29.08;16.77;;;5.20;99.90;;;;;;5092187;28;20043;-65
2022/03/03 09:39:30;;;;;;;29.90;17.85;;;5.30;99.90;;;;;;5092504;28;20044;-66
2022/03/03 09:41:56;;;;;;;31.23;17.15;;;5.30;99.90;;;;;;5091701;28;20500;-65
2022/03/03 09:44:23;;;;;;;28.95;17.17;;;5.40;99.90;;;;;;5093001;28;20032;-66
2022/03/03 09:46:49;;;;;;;30.10;17.83;;;5.40;99.90;;;;;;5092142;28;20108;-65
2022/03/03 09:49:15;;;;;;;32.65;17.85;;;5.60;99.90;;;;;;5091531;28;20457;-66
2022/03/03 09:51:40;;;;;;;28.02;16.33;;;5.60;99.90;;;;;;5077034;28;20051;-66
2022/03/03 09:54:06;;;;;;;30.98;16.48;;;5.80;99.90;;;;;;5071309;28;20075;-66
2022/03/03 09:56:32;;;;;;;27.65;16.33;;;5.90;99.90;;;;;;5075732;28;20202;-66
2022/03/03 09:58:58;;;;;;;28.30;16.83;;;6.00;95.10;;;;;;5097550;28;20709;-66
2022/03/03 10:01:28;;;;;;;27.42;16.35;;;6.00;99.90;;;;;;5091993;28;20047;-65
2022/03/03 10:03:54;;;;;;;31.98;16.23;;;6.00;95.50;;;;;;5091681;28;20435;-67
2022/03/03 10:06:25;;;;;;;32.20;16.40;;;6.00;99.90;;;;;;5092077;28;20137;-68
2022/03/03 10:08:50;;;;;;;29.92;16.23;;;6.10;93.50;;;;;;5090845;28;20047;-66
2022/03/03 10:11:16;;;;;;;30.73;16.30;;;6.20;93.40;;;;;;5092211;28;20401;-67
2022/03/03 10:13:50;;;;;;;30.60;16.05;;;6.20;97.40;;;;;;5091673;28;20039;-67
2022/03/03 10:16:24;;;;;;;31.38;16.58;;;6.30;94.20;;;;;;5090755;28;20047;-66
2022/03/03 10:18:59;;;;;;;24.48;16.13;;;6.40;93.30;;;;;;5091852;28;20045;-67
2022/03/03 10:21:28;;;;;;;31.10;16.48;;;6.50;92.30;;;;;;5099247;28;20039;-67
2022/03/03 10:23:54;;;;;;;29.10;16.90;;;6.50;88.40;;;;;;5073221;28;20083;-67
2022/03/03 10:26:19;;;;;;;25.33;15.05;;;6.60;99.30;;;;;;5071760;28;20059;-67
2022/03/03 10:28:49;;;;;;;26.73;16.73;;;6.60;98.90;;;;;;5071724;28;20051;-67
2022/03/03 10:31:20;;;;;;;26.65;15.43;;;6.70;98.90;;;;;;5071489;28;20126;-66
2022/03/03 10:33:49;;;;;;;24.30;15.35;;;6.70;92.00;;;;;;5072760;28;20044;-67
2022/03/03 10:36:19;;;;;;;27.73;14.98;;;6.80;80.50;;;;;;5071903;28;20210;-66
2022/03/03 10:38:56;;;;;;;25.55;14.82;;;6.90;90.20;;;;;;5071542;28;20144;-66
2022/03/03 10:41:46;;;;;;;26.65;15.20;;;6.80;70.30;;;;;;5071549;28;20495;-66
2022/03/03 10:44:16;;;;;;;25.33;15.10;;;7.00;85.20;;;;;;5071504;28;20036;-66
2022/03/03 10:47:02;;;;;;;25.73;15.50;;;7.00;83.70;;;;;;5071420;28;20045;-66
2022/03/03 10:49:28;;;;;;;24.52;14.68;;;7.10;91.70;;;;;;5071069;28;20518;-66
2022/03/03 10:52:07;;;;;;;24.75;14.90;;;7.20;80.90;;;;;;5070713;28;20052;-67
2022/03/03 10:54:33;;;;;;;25.45;14.75;;;7.20;74.80;;;;;;5073726;28;20044;-68
2022/03/03 10:56:58;;;;;;;26.50;14.45;;;7.30;79.30;;;;;;5074197;28;20414;-68
2022/03/03 10:59:25;;;;;;;24.00;12.98;;;7.30;79.30;;;;;;5079173;28;20115;-68
2022/03/03 11:01:52;;;;;;;23.67;15.90;;;7.40;71.80;;;;;;5070843;28;20165;-68
2022/03/03 11:04:20;;;;;;;23.73;14.80;;;7.40;69.20;;;;;;5071548;28;20033;-68
2022/03/03 11:06:49;;;;;;;26.08;14.15;;;7.40;71.60;;;;;;5071137;28;20044;-67
2022/03/03 11:09:17;;;;;;;23.63;14.30;;;7.40;69.60;;;;;;5069623;28;20083;-68
2022/03/03 11:11:43;;;;;;;24.65;13.52;;;7.40;66.80;;;;;;5070510;28;20408;-68
2022/03/03 11:14:09;;;;;;;21.20;12.52;;;7.50;70.80;;;;;;5070941;28;20048;-73
2022/03/03 11:16:35;;;;;;;21.70;13.63;;;7.70;66.00;;;;;;5072080;28;20040;-71
2022/03/03 11:19:01;;;;;;;21.33;13.38;;;7.80;79.20;;;;;;5073234;28;20041;-73
2022/03/03 11:21:26;;;;;;;23.15;13.10;;;7.80;64.00;;;;;;5071272;28;20068;-73
2022/03/03 11:23:54;;;;;;;18.70;12.35;;;7.80;60.50;;;;;;5070129;28;20113;-73
2022/03/03 11:26:44;;;;;;;20.02;13.43;;;7.80;62.60;;;;;;5071156;28;20036;-74
2022/03/03 11:29:13;;;;;;;19.92;13.93;;;7.90;67.10;;;;;;5071168;28;20048;-73
2022/03/03 11:31:43;;;;;;;21.60;13.68;;;7.90;66.80;;;;;;5070540;28;20091;-73
2022/03/03 11:34:30;;;;;;;23.35;13.07;;;8.00;72.50;;;;;;5087557;28;20138;-72
2022/03/03 11:37:11;;;;;;;21.20;12.88;;;8.10;62.00;;;;;;5086226;28;20047;-73
2022/03/03 11:39:40;;;;;;;20.10;12.93;;;8.10;59.70;;;;;;5086714;28;20464;-72
2022/03/03 11:42:36;;;;;;;22.13;13.70;;;8.30;65.10;;;;;;5088238;28;20127;-74
2022/03/03 11:45:13;;;;;;;20.67;11.88;;;8.40;61.40;;;;;;5089682;28;20481;-72
2022/03/03 11:47:47;;;;;;;18.17;12.07;;;8.40;64.60;;;;;;5087773;28;20052;-70
2022/03/03 11:50:23;;;;;;;19.92;12.30;;;8.50;65.00;;;;;;5086402;28;20067;-73
2022/03/03 11:52:59;;;;;;;20.48;12.10;;;8.60;61.50;;;;;;5086659;28;20048;-74
2022/03/03 11:55:38;;;;;;;19.23;12.48;;;8.60;63.70;;;;;;5087204;28;20040;-71
2022/03/03 11:58:18;;;;;;;18.50;11.75;;;8.70;66.10;;;;;;5087612;28;20049;-71
2022/03/03 12:00:57;;;;;;;19.80;12.70;;;8.80;61.50;;;;;;5079954;28;20040;-71
2022/03/03 12:03:22;;;;;;;24.00;13.18;;;8.80;64.50;;;;;;5094220;28;20648;-70
2022/03/03 12:06:02;;;;;;;25.85;13.88;;;8.90;69.20;;;;;;5089312;28;20040;-71
2022/03/03 12:08:29;;;;;;;19.98;12.52;;;8.70;62.00;;;;;;5089165;28;20040;-71
2022/03/03 12:11:15;;;;;;;22.90;12.55;;;8.80;59.90;;;;;;5070037;28;20098;-70
2022/03/03 12:13:47;;;;;;;17.02;10.52;;;8.90;61.60;;;;;;5080765;28;20043;-71
2022/03/03 12:16:29;;;;;;;17.83;11.18;;;8.90;60.40;;;;;;5065478;28;20076;-71
2022/03/03 12:18:54;;;;;;;15.73;10.43;;;8.90;63.80;;;;;;5078830;28;20067;-72
2022/03/03 12:21:33;;;;;;;16.52;10.85;;;8.90;66.10;;;;;;5088108;28;20040;-71
2022/03/03 12:24:14;;;;;;;17.05;10.55;;;9.00;61.30;;;;;;5085543;28;20055;-71
2022/03/03 12:26:59;;;;;;;19.88;12.13;;;9.10;63.60;;;;;;5083442;28;20125;-71
2022/03/03 12:29:48;;;;;;;19.27;11.32;;;9.20;61.40;;;;;;5086803;28;20040;-71
2022/03/03 12:32:32;;;;;;;16.90;10.48;;;9.20;61.40;;;;;;5091302;28;20070;-73
2022/03/03 12:35:04;;;;;;;17.50;10.15;;;9.20;60.60;;;;;;5086445;28;20151;-73
2022/03/03 12:37:32;;;;;;;19.23;11.20;;;9.30;61.70;;;;;;5083580;28;20042;-73
2022/03/03 12:40:00;;;;;;;14.73;10.30;;;9.10;57.20;;;;;;5085430;28;20500;-72